Surface observations / Europe / LEMH

Quebec | Canada | USA | France | UK | Europe | Elsewhere

Display: Info & Location for LEMH | Help decoding METAR

LEMH MAHON/MENORCA ISL -- SP
Raw surface observations for station LEMH
LEMH 161000Z 03005KT 350V070 CAVOK 18/09 Q1018=
LEMH 160930Z 01007KT 320V070 CAVOK 17/09 Q1018=
LEMH 160900Z 02008KT 340V070 CAVOK 18/08 Q1018=
LEMH 160830Z 01005KT 330V060 CAVOK 17/08 Q1018=
LEMH 160800Z 01007KT 330V050 CAVOK 16/10 Q1017=
LEMH 160730Z 01009KT 340V040 CAVOK 15/11 Q1017=
LEMH 160700Z 01008KT CAVOK 15/11 Q1017=
LEMH 160630Z 36006KT CAVOK 13/10 Q1017=
LEMH 160600Z 36008KT CAVOK 12/10 Q1017=
LEMH 160530Z 35007KT CAVOK 10/09 Q1017=
LEMH 160500Z 35008KT CAVOK 10/09 Q1017=
LEMH 160430Z 35008KT CAVOK 11/09 Q1016=
LEMH 160400Z 35009KT CAVOK 11/08 Q1016=
LEMH 160330Z 36009KT CAVOK 11/08 Q1016=
LEMH 160300Z 36009KT CAVOK 11/09 Q1016=
LEMH 160000Z 35007KT CAVOK 11/08 Q1017=
LEMH 152230Z 35006KT CAVOK 12/05 Q1016=
LEMH 152200Z 32007KT CAVOK 13/06 Q1016=
LEMH 152130Z 33007KT CAVOK 13/07 Q1016=
LEMH 152100Z 34007KT CAVOK 13/07 Q1016=
LEMH 152030Z 34007KT CAVOK 13/07 Q1016=
LEMH 152000Z 35008KT CAVOK 13/08 Q1016=
LEMH 151930Z 36007KT CAVOK 13/10 Q1016=
LEMH 151900Z 36007KT CAVOK 13/09 Q1015=
LEMH 151830Z 36005KT CAVOK 13/10 Q1015=
LEMH 151800Z 01006KT CAVOK 15/10 Q1015=
LEMH 151730Z 02006KT CAVOK 16/10 Q1015=
LEMH 151700Z 01003KT 330V030 CAVOK 17/10 Q1015=
LEMH 151630Z 35005KT 300V020 CAVOK 18/09 Q1015=
LEMH 151600Z 35004KT 300V040 CAVOK 20/10 Q1014=
LEMH 151530Z 34005KT 290V020 CAVOK 20/10 Q1014=
LEMH 151500Z 36007KT 320V020 CAVOK 18/08 Q1014=
LEMH 151430Z 33006KT 290V010 CAVOK 19/08 Q1015=
LEMH 151400Z 33007KT 300V360 CAVOK 19/08 Q1015=
LEMH 151330Z 32007KT 270V010 CAVOK 20/07 Q1015=
LEMH 151300Z 34007KT 310V020 CAVOK 20/08 Q1015=
LEMH 151230Z 31006KT 270V340 CAVOK 20/07 Q1015=
LEMH 151200Z VRB02KT CAVOK 20/08 Q1015=
LEMH 151130Z 33004KT 280V030 CAVOK 20/08 Q1015=
LEMH 151100Z 01006KT CAVOK 19/08 Q1015=
LEMH 151030Z 35004KT 310V030 CAVOK 19/09 Q1015=
LEMH 151000Z 36007KT 310V030 CAVOK 19/09 Q1015=